sensor_id;sensor_type;location;lat;lon;timestamp;temperature;humidity
5711;DHT22;61291;52.524;13.422;2022-08-19T00:02:22;20.90;99.90
5711;DHT22;61291;52.524;13.422;2022-08-19T00:04:47;21.00;99.90
5711;DHT22;61291;52.524;13.422;2022-08-19T00:07:20;21.00;99.90
5711;DHT22;61291;52.524;13.422;2022-08-19T00:09:46;21.10;99.90
5711;DHT22;61291;52.524;13.422;2022-08-19T00:12:12;21.10;99.90
5711;DHT22;61291;52.524;13.422;2022-08-19T00:14:38;21.10;99.90
5711;DHT22;61291;52.524;13.422;2022-08-19T00:17:05;21.20;99.90
5711;DHT22;61291;52.524;13.422;2022-08-19T00:19:32;21.10;99.90
5711;DHT22;61291;52.524;13.422;2022-08-19T00:21:58;21.20;99.90
5711;DHT22;61291;52.524;13.422;2022-08-19T00:24:24;21.20;99.90
5711;DHT22;61291;52.524;13.422;2022-08-19T00:26:50;21.20;99.90
5711;DHT22;61291;52.524;13.422;2022-08-19T00:29:18;21.20;99.90
5711;DHT22;61291;52.524;13.422;2022-08-19T00:31:44;21.10;99.90
5711;DHT22;61291;52.524;13.422;2022-08-19T00:34:11;21.10;99.90
5711;DHT22;61291;52.524;13.422;2022-08-19T00:36:37;21.10;99.90
5711;DHT22;61291;52.524;13.422;2022-08-19T00:39:03;21.10;99.90
5711;DHT22;61291;52.524;13.422;2022-08-19T00:41:29;21.00;99.90
5711;DHT22;61291;52.524;13.422;2022-08-19T00:44:09;21.10;99.90
5711;DHT22;61291;52.524;13.422;2022-08-19T00:46:37;21.10;99.90
5711;DHT22;61291;52.524;13.422;2022-08-19T00:49:10;21.10;99.90
5711;DHT22;61291;52.524;13.422;2022-08-19T00:51:39;21.10;99.90
5711;DHT22;61291;52.524;13.422;2022-08-19T00:54:06;21.10;99.90
5711;DHT22;61291;52.524;13.422;2022-08-19T00:56:32;21.10;99.90
5711;DHT22;61291;52.524;13.422;2022-08-19T00:58:59;21.10;99.90
5711;DHT22;61291;52.524;13.422;2022-08-19T01:01:26;21.00;99.90
5711;DHT22;61291;52.524;13.422;2022-08-19T01:03:52;20.80;99.90
5711;DHT22;61291;52.524;13.422;2022-08-19T01:06:17;20.50;99.90
5711;DHT22;61291;52.524;13.422;2022-08-19T01:08:43;20.40;99.90
5711;DHT22;61291;52.524;13.422;2022-08-19T01:11:08;20.40;99.90
5711;DHT22;61291;52.524;13.422;2022-08-19T01:13:34;20.30;99.90
5711;DHT22;61291;52.524;13.422;2022-08-19T01:16:04;20.30;99.90
5711;DHT22;61291;52.524;13.422;2022-08-19T01:18:32;20.30;99.90
5711;DHT22;61291;52.524;13.422;2022-08-19T01:21:01;20.40;99.90
5711;DHT22;61291;52.524;13.422;2022-08-19T01:23:27;20.40;99.90
5711;DHT22;61291;52.524;13.422;2022-08-19T01:26:13;20.40;99.90
5711;DHT22;61291;52.524;13.422;2022-08-19T01:28:40;20.40;99.90
5711;DHT22;61291;52.524;13.422;2022-08-19T01:31:07;20.40;99.90
5711;DHT22;61291;52.524;13.422;2022-08-19T01:33:34;20.50;99.90
5711;DHT22;61291;52.524;13.422;2022-08-19T01:36:09;20.50;99.90
5711;DHT22;61291;52.524;13.422;2022-08-19T01:38:37;20.40;99.90
5711;DHT22;61291;52.524;13.422;2022-08-19T01:41:03;20.30;99.90
5711;DHT22;61291;52.524;13.422;2022-08-19T01:43:28;20.30;99.90
5711;DHT22;61291;52.524;13.422;2022-08-19T01:45:54;20.40;99.90
5711;DHT22;61291;52.524;13.422;2022-08-19T01:48:19;20.20;99.90
5711;DHT22;61291;52.524;13.422;2022-08-19T01:50:45;20.20;99.90
5711;DHT22;61291;52.524;13.422;2022-08-19T01:53:11;20.20;99.90
5711;DHT22;61291;52.524;13.422;2022-08-19T01:55:39;20.20;99.90
5711;DHT22;61291;52.524;13.422;2022-08-19T01:58:06;20.10;99.90
5711;DHT22;61291;52.524;13.422;2022-08-19T02:00:32;20.10;99.90
5711;DHT22;61291;52.524;13.422;2022-08-19T02:02:58;20.00;99.90
5711;DHT22;61291;52.524;13.422;2022-08-19T02:05:24;20.00;99.90
5711;DHT22;61291;52.524;13.422;2022-08-19T02:07:49;20.00;99.90
5711;DHT22;61291;52.524;13.422;2022-08-19T02:10:19;19.90;99.90
5711;DHT22;61291;52.524;13.422;2022-08-19T02:12:45;20.00;99.90
5711;DHT22;61291;52.524;13.422;2022-08-19T02:15:11;20.00;99.90
5711;DHT22;61291;52.524;13.422;2022-08-19T02:17:38;20.00;99.90
5711;DHT22;61291;52.524;13.422;2022-08-19T02:20:05;20.00;99.90
5711;DHT22;61291;52.524;13.422;2022-08-19T02:22:32;20.00;99.90
5711;DHT22;61291;52.524;13.422;2022-08-19T02:24:58;19.90;99.90
5711;DHT22;61291;52.524;13.422;2022-08-19T02:27:23;19.90;99.90
5711;DHT22;61291;52.524;13.422;2022-08-19T02:29:50;19.90;99.90
5711;DHT22;61291;52.524;13.422;2022-08-19T02:32:16;19.90;99.90
5711;DHT22;61291;52.524;13.422;2022-08-19T02:34:43;19.80;99.90
5711;DHT22;61291;52.524;13.422;2022-08-19T02:37:08;19.90;99.90
5711;DHT22;61291;52.524;13.422;2022-08-19T02:39:54;19.90;99.90
5711;DHT22;61291;52.524;13.422;2022-08-19T02:42:19;19.90;99.90
5711;DHT22;61291;52.524;13.422;2022-08-19T02:44:45;19.90;99.90
5711;DHT22;61291;52.524;13.422;2022-08-19T02:47:10;19.90;99.90
5711;DHT22;61291;52.524;13.422;2022-08-19T02:49:36;19.90;99.90
5711;DHT22;61291;52.524;13.422;2022-08-19T02:52:02;19.80;99.90
5711;DHT22;61291;52.524;13.422;2022-08-19T02:54:28;19.90;99.90
5711;DHT22;61291;52.524;13.422;2022-08-19T02:56:53;19.80;99.90
5711;DHT22;61291;52.524;13.422;2022-08-19T02:59:19;19.80;99.90
5711;DHT22;61291;52.524;13.422;2022-08-19T03:01:45;19.90;99.90
5711;DHT22;61291;52.524;13.422;2022-08-19T03:04:15;19.80;99.90
5711;DHT22;61291;52.524;13.422;2022-08-19T03:06:44;19.90;99.90
5711;DHT22;61291;52.524;13.422;2022-08-19T03:09:10;19.90;99.90
5711;DHT22;61291;52.524;13.422;2022-08-19T03:11:36;19.80;99.90
5711;DHT22;61291;52.524;13.422;2022-08-19T03:14:04;19.80;99.90
5711;DHT22;61291;52.524;13.422;2022-08-19T03:16:33;19.80;99.90
5711;DHT22;61291;52.524;13.422;2022-08-19T03:19:01;19.70;99.90
5711;DHT22;61291;52.524;13.422;2022-08-19T03:21:30;19.70;99.90
5711;DHT22;61291;52.524;13.422;2022-08-19T03:23:57;19.70;99.90
5711;DHT22;61291;52.524;13.422;2022-08-19T03:26:23;19.70;99.90
5711;DHT22;61291;52.524;13.422;2022-08-19T03:28:48;19.70;99.90
5711;DHT22;61291;52.524;13.422;2022-08-19T03:31:18;19.60;99.90
5711;DHT22;61291;52.524;13.422;2022-08-19T03:33:44;19.60;99.90
5711;DHT22;61291;52.524;13.422;2022-08-19T03:36:14;19.60;99.90
5711;DHT22;61291;52.524;13.422;2022-08-19T03:38:47;19.60;99.90
5711;DHT22;61291;52.524;13.422;2022-08-19T03:41:17;19.70;99.90
5711;DHT22;61291;52.524;13.422;2022-08-19T03:43:44;19.70;99.90
5711;DHT22;61291;52.524;13.422;2022-08-19T03:46:16;19.80;99.90
5711;DHT22;61291;52.524;13.422;2022-08-19T03:48:43;19.80;99.90
5711;DHT22;61291;52.524;13.422;2022-08-19T03:51:17;19.80;99.90
5711;DHT22;61291;52.524;13.422;2022-08-19T03:53:43;19.80;99.90
5711;DHT22;61291;52.524;13.422;2022-08-19T03:56:09;19.70;99.90
5711;DHT22;61291;52.524;13.422;2022-08-19T03:58:35;19.70;99.90
5711;DHT22;61291;52.524;13.422;2022-08-19T04:01:06;19.70;99.90
5711;DHT22;61291;52.524;13.422;2022-08-19T04:03:31;19.70;99.90
5711;DHT22;61291;52.524;13.422;2022-08-19T04:05:57;19.70;99.90
5711;DHT22;61291;52.524;13.422;2022-08-19T04:08:22;19.70;99.90
5711;DHT22;61291;52.524;13.422;2022-08-19T04:10:48;19.70;99.90
5711;DHT22;61291;52.524;13.422;2022-08-19T04:13:16;19.70;99.90
5711;DHT22;61291;52.524;13.422;2022-08-19T04:15:43;19.70;99.90
5711;DHT22;61291;52.524;13.422;2022-08-19T04:18:10;19.80;99.90
5711;DHT22;61291;52.524;13.422;2022-08-19T04:20:46;19.80;99.90
5711;DHT22;61291;52.524;13.422;2022-08-19T04:23:14;19.80;99.90
5711;DHT22;61291;52.524;13.422;2022-08-19T04:25:42;19.80;99.90
5711;DHT22;61291;52.524;13.422;2022-08-19T04:28:09;19.90;99.90
5711;DHT22;61291;52.524;13.422;2022-08-19T04:30:47;19.90;99.90
5711;DHT22;61291;52.524;13.422;2022-08-19T04:33:13;19.90;99.90
5711;DHT22;61291;52.524;13.422;2022-08-19T04:35:42;19.90;99.90
5711;DHT22;61291;52.524;13.422;2022-08-19T04:38:09;20.00;99.90
5711;DHT22;61291;52.524;13.422;2022-08-19T04:40:40;20.00;99.90
5711;DHT22;61291;52.524;13.422;2022-08-19T04:43:24;20.00;99.90
5711;DHT22;61291;52.524;13.422;2022-08-19T04:45:49;20.00;99.90
5711;DHT22;61291;52.524;13.422;2022-08-19T04:48:16;20.10;99.90
5711;DHT22;61291;52.524;13.422;2022-08-19T04:50:44;20.20;99.90
5711;DHT22;61291;52.524;13.422;2022-08-19T04:53:10;20.20;99.90
5711;DHT22;61291;52.524;13.422;2022-08-19T04:55:39;20.20;99.90
5711;DHT22;61291;52.524;13.422;2022-08-19T04:58:05;20.30;99.90
5711;DHT22;61291;52.524;13.422;2022-08-19T05:00:31;20.40;99.90
5711;DHT22;61291;52.524;13.422;2022-08-19T05:02:56;20.40;99.90
5711;DHT22;61291;52.524;13.422;2022-08-19T05:05:22;20.60;99.90
5711;DHT22;61291;52.524;13.422;2022-08-19T05:07:47;20.80;99.90
5711;DHT22;61291;52.524;13.422;2022-08-19T05:10:13;20.80;99.90
5711;DHT22;61291;52.524;13.422;2022-08-19T05:12:38;20.70;99.90
5711;DHT22;61291;52.524;13.422;2022-08-19T05:15:05;20.90;99.90
5711;DHT22;61291;52.524;13.422;2022-08-19T05:17:33;20.90;99.90
5711;DHT22;61291;52.524;13.422;2022-08-19T05:19:59;21.10;99.90
5711;DHT22;61291;52.524;13.422;2022-08-19T05:22:44;21.10;99.90
5711;DHT22;61291;52.524;13.422;2022-08-19T05:25:13;21.30;99.90
5711;DHT22;61291;52.524;13.422;2022-08-19T05:27:40;21.40;99.90
5711;DHT22;61291;52.524;13.422;2022-08-19T05:30:07;21.60;99.90
5711;DHT22;61291;52.524;13.422;2022-08-19T05:32:32;21.60;99.90
5711;DHT22;61291;52.524;13.422;2022-08-19T05:34:58;21.70;99.90
5711;DHT22;61291;52.524;13.422;2022-08-19T05:37:23;21.90;99.90
5711;DHT22;61291;52.524;13.422;2022-08-19T05:39:51;21.90;99.90
5711;DHT22;61291;52.524;13.422;2022-08-19T05:42:17;21.90;99.90
5711;DHT22;61291;52.524;13.422;2022-08-19T05:44:45;21.60;99.90
5711;DHT22;61291;52.524;13.422;2022-08-19T05:47:12;21.80;99.90
5711;DHT22;61291;52.524;13.422;2022-08-19T05:49:38;21.80;99.90
5711;DHT22;61291;52.524;13.422;2022-08-19T05:52:06;21.60;99.90
5711;DHT22;61291;52.524;13.422;2022-08-19T05:54:33;21.90;99.90
5711;DHT22;61291;52.524;13.422;2022-08-19T05:57:00;21.80;99.90
5711;DHT22;61291;52.524;13.422;2022-08-19T05:59:26;21.80;99.90
5711;DHT22;61291;52.524;13.422;2022-08-19T06:01:52;22.40;99.90
5711;DHT22;61291;52.524;13.422;2022-08-19T06:04:21;22.40;99.90
5711;DHT22;61291;52.524;13.422;2022-08-19T06:06:48;22.50;99.90
5711;DHT22;61291;52.524;13.422;2022-08-19T06:09:15;22.20;99.90
5711;DHT22;61291;52.524;13.422;2022-08-19T06:11:46;22.20;99.90
5711;DHT22;61291;52.524;13.422;2022-08-19T06:14:15;22.30;99.90
5711;DHT22;61291;52.524;13.422;2022-08-19T06:16:44;22.50;99.90
5711;DHT22;61291;52.524;13.422;2022-08-19T06:19:15;22.60;99.90
5711;DHT22;61291;52.524;13.422;2022-08-19T06:21:43;22.70;99.90
5711;DHT22;61291;52.524;13.422;2022-08-19T06:24:10;22.70;99.90
5711;DHT22;61291;52.524;13.422;2022-08-19T06:26:38;22.40;99.90
5711;DHT22;61291;52.524;13.422;2022-08-19T06:29:05;22.60;99.90
5711;DHT22;61291;52.524;13.422;2022-08-19T06:31:32;22.70;99.90
5711;DHT22;61291;52.524;13.422;2022-08-19T06:33:59;23.10;99.90
5711;DHT22;61291;52.524;13.422;2022-08-19T06:36:28;23.20;99.90
5711;DHT22;61291;52.524;13.422;2022-08-19T06:38:57;23.30;99.90
5711;DHT22;61291;52.524;13.422;2022-08-19T06:41:26;23.40;99.90
5711;DHT22;61291;52.524;13.422;2022-08-19T06:43:53;23.00;99.90
5711;DHT22;61291;52.524;13.422;2022-08-19T06:46:19;23.50;99.90
5711;DHT22;61291;52.524;13.422;2022-08-19T06:48:46;23.00;99.90
5711;DHT22;61291;52.524;13.422;2022-08-19T06:51:16;23.80;99.90
5711;DHT22;61291;52.524;13.422;2022-08-19T06:53:50;24.30;99.90
5711;DHT22;61291;52.524;13.422;2022-08-19T06:56:19;24.40;99.90
5711;DHT22;61291;52.524;13.422;2022-08-19T06:58:46;24.20;99.90
5711;DHT22;61291;52.524;13.422;2022-08-19T07:01:12;23.90;99.90
5711;DHT22;61291;52.524;13.422;2022-08-19T07:03:38;24.10;99.90
5711;DHT22;61291;52.524;13.422;2022-08-19T07:06:06;24.30;99.90
5711;DHT22;61291;52.524;13.422;2022-08-19T07:08:33;24.50;99.90
5711;DHT22;61291;52.524;13.422;2022-08-19T07:10:59;24.00;99.90
5711;DHT22;61291;52.524;13.422;2022-08-19T07:13:25;23.70;99.90
5711;DHT22;61291;52.524;13.422;2022-08-19T07:15:51;23.80;99.90
5711;DHT22;61291;52.524;13.422;2022-08-19T07:18:18;24.10;99.90
5711;DHT22;61291;52.524;13.422;2022-08-19T07:20:45;24.10;99.90
5711;DHT22;61291;52.524;13.422;2022-08-19T07:23:11;24.10;99.90
5711;DHT22;61291;52.524;13.422;2022-08-19T07:25:37;24.30;99.90
5711;DHT22;61291;52.524;13.422;2022-08-19T07:28:03;24.60;99.90
5711;DHT22;61291;52.524;13.422;2022-08-19T07:30:30;25.00;99.90
5711;DHT22;61291;52.524;13.422;2022-08-19T07:32:56;25.00;99.90
5711;DHT22;61291;52.524;13.422;2022-08-19T07:35:22;25.00;99.90
5711;DHT22;61291;52.524;13.422;2022-08-19T07:37:48;25.00;99.90
5711;DHT22;61291;52.524;13.422;2022-08-19T07:40:14;24.90;99.90
5711;DHT22;61291;52.524;13.422;2022-08-19T07:42:39;24.70;99.90
5711;DHT22;61291;52.524;13.422;2022-08-19T07:45:06;24.70;99.90
5711;DHT22;61291;52.524;13.422;2022-08-19T07:47:32;24.50;99.90
5711;DHT22;61291;52.524;13.422;2022-08-19T07:49:58;24.70;99.90
5711;DHT22;61291;52.524;13.422;2022-08-19T07:52:23;24.50;99.90
5711;DHT22;61291;52.524;13.422;2022-08-19T07:54:49;24.50;99.90
5711;DHT22;61291;52.524;13.422;2022-08-19T07:57:15;24.60;99.90
5711;DHT22;61291;52.524;13.422;2022-08-19T07:59:41;24.80;99.90
5711;DHT22;61291;52.524;13.422;2022-08-19T08:02:08;25.10;99.90
5711;DHT22;61291;52.524;13.422;2022-08-19T08:04:33;25.10;99.90
5711;DHT22;61291;52.524;13.422;2022-08-19T08:07:18;25.10;99.90
5711;DHT22;61291;52.524;13.422;2022-08-19T08:10:04;24.90;99.90
5711;DHT22;61291;52.524;13.422;2022-08-19T08:12:34;24.80;99.90
5711;DHT22;61291;52.524;13.422;2022-08-19T08:15:04;24.80;99.90
5711;DHT22;61291;52.524;13.422;2022-08-19T08:17:30;25.10;99.90
5711;DHT22;61291;52.524;13.422;2022-08-19T08:19:56;25.20;99.90
5711;DHT22;61291;52.524;13.422;2022-08-19T08:22:23;25.50;99.90
5711;DHT22;61291;52.524;13.422;2022-08-19T08:25:14;25.60;99.90
5711;DHT22;61291;52.524;13.422;2022-08-19T08:27:41;25.70;99.90
5711;DHT22;61291;52.524;13.422;2022-08-19T08:30:15;25.70;99.90
5711;DHT22;61291;52.524;13.422;2022-08-19T08:32:41;25.70;99.90
5711;DHT22;61291;52.524;13.422;2022-08-19T08:35:09;25.80;99.90
5711;DHT22;61291;52.524;13.422;2022-08-19T08:37:35;26.00;99.90
5711;DHT22;61291;52.524;13.422;2022-08-19T08:40:22;26.10;99.90
5711;DHT22;61291;52.524;13.422;2022-08-19T08:42:57;26.30;99.90
5711;DHT22;61291;52.524;13.422;2022-08-19T08:45:26;26.40;99.90
5711;DHT22;61291;52.524;13.422;2022-08-19T08:47:53;26.50;99.90
5711;DHT22;61291;52.524;13.422;2022-08-19T08:50:34;26.70;99.90
5711;DHT22;61291;52.524;13.422;2022-08-19T08:53:03;26.60;99.90
5711;DHT22;61291;52.524;13.422;2022-08-19T08:55:31;26.70;99.90
5711;DHT22;61291;52.524;13.422;2022-08-19T08:58:11;26.70;99.90
5711;DHT22;61291;52.524;13.422;2022-08-19T09:00:45;27.10;99.90
5711;DHT22;61291;52.524;13.422;2022-08-19T09:03:22;27.20;99.90
5711;DHT22;61291;52.524;13.422;2022-08-19T09:08:50;27.70;99.90
5711;DHT22;61291;52.524;13.422;2022-08-19T09:11:40;26.90;99.90
5711;DHT22;61291;52.524;13.422;2022-08-19T09:16:55;26.00;99.90
5711;DHT22;61291;52.524;13.422;2022-08-19T09:19:21;26.10;99.90
5711;DHT22;61291;52.524;13.422;2022-08-19T09:21:46;26.80;99.90
5711;DHT22;61291;52.524;13.422;2022-08-19T09:24:13;27.00;99.90
5711;DHT22;61291;52.524;13.422;2022-08-19T09:26:38;27.40;99.90
5711;DHT22;61291;52.524;13.422;2022-08-19T09:29:04;27.80;99.90
5711;DHT22;61291;52.524;13.422;2022-08-19T09:31:32;28.40;99.90
5711;DHT22;61291;52.524;13.422;2022-08-19T09:33:58;29.00;99.90
5711;DHT22;61291;52.524;13.422;2022-08-19T09:36:27;29.60;99.90
5711;DHT22;61291;52.524;13.422;2022-08-19T09:38:55;29.90;99.90
5711;DHT22;61291;52.524;13.422;2022-08-19T09:41:23;29.60;99.90
5711;DHT22;61291;52.524;13.422;2022-08-19T09:43:50;29.30;99.90
5711;DHT22;61291;52.524;13.422;2022-08-19T09:46:22;29.90;99.90
5711;DHT22;61291;52.524;13.422;2022-08-19T09:48:49;30.30;99.90
5711;DHT22;61291;52.524;13.422;2022-08-19T09:51:19;30.00;99.90
5711;DHT22;61291;52.524;13.422;2022-08-19T09:53:46;30.10;99.90
5711;DHT22;61291;52.524;13.422;2022-08-19T09:56:13;30.00;99.80
5711;DHT22;61291;52.524;13.422;2022-08-19T09:58:39;30.30;99.40
5711;DHT22;61291;52.524;13.422;2022-08-19T10:01:06;30.50;98.70
5711;DHT22;61291;52.524;13.422;2022-08-19T10:03:34;30.10;98.10
5711;DHT22;61291;52.524;13.422;2022-08-19T10:06:01;29.30;98.90
5711;DHT22;61291;52.524;13.422;2022-08-19T10:08:30;29.20;99.10
5711;DHT22;61291;52.524;13.422;2022-08-19T10:10:57;28.90;99.50
5711;DHT22;61291;52.524;13.422;2022-08-19T10:13:26;29.20;99.30
5711;DHT22;61291;52.524;13.422;2022-08-19T10:15:53;29.20;99.00
5711;DHT22;61291;52.524;13.422;2022-08-19T10:18:20;29.10;99.20
5711;DHT22;61291;52.524;13.422;2022-08-19T10:20:47;29.00;99.20
5711;DHT22;61291;52.524;13.422;2022-08-19T10:23:14;28.70;99.50
5711;DHT22;61291;52.524;13.422;2022-08-19T10:25:40;28.10;99.90
5711;DHT22;61291;52.524;13.422;2022-08-19T10:28:06;28.20;99.90
5711;DHT22;61291;52.524;13.422;2022-08-19T10:30:33;28.20;99.90
5711;DHT22;61291;52.524;13.422;2022-08-19T10:32:58;27.80;99.90
5711;DHT22;61291;52.524;13.422;2022-08-19T10:35:24;27.20;99.90
5711;DHT22;61291;52.524;13.422;2022-08-19T10:37:55;26.90;99.90
5711;DHT22;61291;52.524;13.422;2022-08-19T10:40:25;27.00;99.90
5711;DHT22;61291;52.524;13.422;2022-08-19T10:42:52;27.30;99.90
5711;DHT22;61291;52.524;13.422;2022-08-19T10:45:17;27.00;99.90
5711;DHT22;61291;52.524;13.422;2022-08-19T10:47:43;26.80;99.90
5711;DHT22;61291;52.524;13.422;2022-08-19T10:50:08;27.00;99.90
5711;DHT22;61291;52.524;13.422;2022-08-19T10:52:53;27.10;99.90
5711;DHT22;61291;52.524;13.422;2022-08-19T10:55:21;27.20;99.90
5711;DHT22;61291;52.524;13.422;2022-08-19T10:58:14;27.50;99.90
5711;DHT22;61291;52.524;13.422;2022-08-19T11:00:40;28.00;99.90
5711;DHT22;61291;52.524;13.422;2022-08-19T11:03:06;28.20;99.90
5711;DHT22;61291;52.524;13.422;2022-08-19T11:05:31;28.30;99.90
5711;DHT22;61291;52.524;13.422;2022-08-19T11:07:57;28.40;99.90
5711;DHT22;61291;52.524;13.422;2022-08-19T11:10:22;28.20;99.90
5711;DHT22;61291;52.524;13.422;2022-08-19T11:12:48;28.10;99.90
5711;DHT22;61291;52.524;13.422;2022-08-19T11:15:19;27.90;99.90
5711;DHT22;61291;52.524;13.422;2022-08-19T11:17:45;27.70;99.90
5711;DHT22;61291;52.524;13.422;2022-08-19T11:20:12;27.60;99.90
5711;DHT22;61291;52.524;13.422;2022-08-19T11:22:38;27.60;99.90
5711;DHT22;61291;52.524;13.422;2022-08-19T11:25:05;27.60;99.90
5711;DHT22;61291;52.524;13.422;2022-08-19T11:27:31;27.80;99.90
5711;DHT22;61291;52.524;13.422;2022-08-19T11:29:56;28.00;99.90
5711;DHT22;61291;52.524;13.422;2022-08-19T11:32:22;28.10;99.90
5711;DHT22;61291;52.524;13.422;2022-08-19T11:34:48;28.20;99.90
5711;DHT22;61291;52.524;13.422;2022-08-19T11:37:13;28.30;99.90
5711;DHT22;61291;52.524;13.422;2022-08-19T11:39:39;28.50;99.90
5711;DHT22;61291;52.524;13.422;2022-08-19T11:42:06;28.70;99.90
5711;DHT22;61291;52.524;13.422;2022-08-19T11:44:52;28.70;99.90
5711;DHT22;61291;52.524;13.422;2022-08-19T11:47:17;28.40;99.90
5711;DHT22;61291;52.524;13.422;2022-08-19T11:49:43;27.80;99.90
5711;DHT22;61291;52.524;13.422;2022-08-19T11:52:08;27.70;99.90
5711;DHT22;61291;52.524;13.422;2022-08-19T11:54:34;27.30;99.90
5711;DHT22;61291;52.524;13.422;2022-08-19T11:57:02;26.90;99.90
5711;DHT22;61291;52.524;13.422;2022-08-19T11:59:28;26.60;99.90
5711;DHT22;61291;52.524;13.422;2022-08-19T12:01:54;26.60;99.90
5711;DHT22;61291;52.524;13.422;2022-08-19T12:04:21;26.50;99.90
5711;DHT22;61291;52.524;13.422;2022-08-19T12:06:46;26.80;99.90
5711;DHT22;61291;52.524;13.422;2022-08-19T12:09:12;26.70;99.90
5711;DHT22;61291;52.524;13.422;2022-08-19T12:11:43;26.90;99.90
5711;DHT22;61291;52.524;13.422;2022-08-19T12:14:14;26.60;99.90
5711;DHT22;61291;52.524;13.422;2022-08-19T12:16:40;27.00;99.90
5711;DHT22;61291;52.524;13.422;2022-08-19T12:19:06;27.50;99.90
5711;DHT22;61291;52.524;13.422;2022-08-19T12:21:35;28.30;99.90
5711;DHT22;61291;52.524;13.422;2022-08-19T12:24:02;28.60;99.90
5711;DHT22;61291;52.524;13.422;2022-08-19T12:26:29;28.90;99.80
5711;DHT22;61291;52.524;13.422;2022-08-19T12:28:56;28.70;98.90
5711;DHT22;61291;52.524;13.422;2022-08-19T12:31:25;28.70;99.00
5711;DHT22;61291;52.524;13.422;2022-08-19T12:33:50;29.10;98.60
5711;DHT22;61291;52.524;13.422;2022-08-19T12:36:17;28.60;98.80
5711;DHT22;61291;52.524;13.422;2022-08-19T12:38:43;29.00;98.60
5711;DHT22;61291;52.524;13.422;2022-08-19T12:41:11;29.40;97.70
5711;DHT22;61291;52.524;13.422;2022-08-19T12:43:37;30.10;96.50
5711;DHT22;61291;52.524;13.422;2022-08-19T12:46:04;30.50;95.70
5711;DHT22;61291;52.524;13.422;2022-08-19T12:48:30;31.00;95.10
5711;DHT22;61291;52.524;13.422;2022-08-19T12:50:55;30.30;94.40
5711;DHT22;61291;52.524;13.422;2022-08-19T12:53:22;30.20;94.40
5711;DHT22;61291;52.524;13.422;2022-08-19T12:55:48;28.80;95.80
5711;DHT22;61291;52.524;13.422;2022-08-19T12:58:13;28.60;96.70
5711;DHT22;61291;52.524;13.422;2022-08-19T13:00:39;29.10;96.20
5711;DHT22;61291;52.524;13.422;2022-08-19T13:03:05;29.70;95.50
5711;DHT22;61291;52.524;13.422;2022-08-19T13:05:31;29.50;95.20
5711;DHT22;61291;52.524;13.422;2022-08-19T13:07:59;29.60;95.00
5711;DHT22;61291;52.524;13.422;2022-08-19T13:10:29;29.20;95.50
5711;DHT22;61291;52.524;13.422;2022-08-19T13:12:55;29.10;95.60
5711;DHT22;61291;52.524;13.422;2022-08-19T13:15:23;28.90;95.90
5711;DHT22;61291;52.524;13.422;2022-08-19T13:17:50;29.50;95.30
5711;DHT22;61291;52.524;13.422;2022-08-19T13:20:17;30.20;94.50
5711;DHT22;61291;52.524;13.422;2022-08-19T13:22:44;30.20;93.90
5711;DHT22;61291;52.524;13.422;2022-08-19T13:25:10;30.50;93.50
5711;DHT22;61291;52.524;13.422;2022-08-19T13:27:37;30.50;93.00
5711;DHT22;61291;52.524;13.422;2022-08-19T13:30:04;30.70;92.90
5711;DHT22;61291;52.524;13.422;2022-08-19T13:32:48;30.90;92.70
5711;DHT22;61291;52.524;13.422;2022-08-19T13:35:32;31.30;92.20
5711;DHT22;61291;52.524;13.422;2022-08-19T13:37:58;31.10;91.70
5711;DHT22;61291;52.524;13.422;2022-08-19T13:40:24;30.80;91.60
5711;DHT22;61291;52.524;13.422;2022-08-19T13:42:53;30.80;91.80
5711;DHT22;61291;52.524;13.422;2022-08-19T13:45:21;30.10;92.10
5711;DHT22;61291;52.524;13.422;2022-08-19T13:47:48;29.30;92.90
5711;DHT22;61291;52.524;13.422;2022-08-19T13:50:17;28.40;94.20
5711;DHT22;61291;52.524;13.422;2022-08-19T13:52:44;28.10;95.00
5711;DHT22;61291;52.524;13.422;2022-08-19T13:55:10;28.20;95.10
5711;DHT22;61291;52.524;13.422;2022-08-19T13:57:36;28.50;94.80
5711;DHT22;61291;52.524;13.422;2022-08-19T14:00:11;28.50;94.70
5711;DHT22;61291;52.524;13.422;2022-08-19T14:02:38;28.30;95.10
5711;DHT22;61291;52.524;13.422;2022-08-19T14:05:06;28.10;95.40
5711;DHT22;61291;52.524;13.422;2022-08-19T14:07:31;27.60;96.20
5711;DHT22;61291;52.524;13.422;2022-08-19T14:09:57;27.70;96.10
5711;DHT22;61291;52.524;13.422;2022-08-19T14:12:22;27.60;96.60
5711;DHT22;61291;52.524;13.422;2022-08-19T14:14:48;27.60;96.60
5711;DHT22;61291;52.524;13.422;2022-08-19T14:17:14;28.00;96.50
5711;DHT22;61291;52.524;13.422;2022-08-19T14:19:40;28.40;96.10
5711;DHT22;61291;52.524;13.422;2022-08-19T14:22:05;28.90;95.60
5711;DHT22;61291;52.524;13.422;2022-08-19T14:24:31;28.60;95.00
5711;DHT22;61291;52.524;13.422;2022-08-19T14:26:58;28.70;94.90
5711;DHT22;61291;52.524;13.422;2022-08-19T14:29:24;28.40;95.10
5711;DHT22;61291;52.524;13.422;2022-08-19T14:31:50;28.60;94.60
5711;DHT22;61291;52.524;13.422;2022-08-19T14:34:15;28.60;94.60
5711;DHT22;61291;52.524;13.422;2022-08-19T14:36:41;28.20;94.90
5711;DHT22;61291;52.524;13.422;2022-08-19T14:39:07;28.00;95.00
5711;DHT22;61291;52.524;13.422;2022-08-19T14:41:32;27.70;95.40
5711;DHT22;61291;52.524;13.422;2022-08-19T14:43:58;27.60;95.50
5711;DHT22;61291;52.524;13.422;2022-08-19T14:46:26;27.30;96.20
5711;DHT22;61291;52.524;13.422;2022-08-19T14:48:52;26.90;96.80
5711;DHT22;61291;52.524;13.422;2022-08-19T14:51:18;26.40;97.60
5711;DHT22;61291;52.524;13.422;2022-08-19T14:53:44;26.10;98.40
5711;DHT22;61291;52.524;13.422;2022-08-19T14:56:12;26.00;98.70
5711;DHT22;61291;52.524;13.422;2022-08-19T14:58:39;25.90;99.40
5711;DHT22;61291;52.524;13.422;2022-08-19T15:01:07;26.30;99.30
5711;DHT22;61291;52.524;13.422;2022-08-19T15:03:33;26.80;99.00
5711;DHT22;61291;52.524;13.422;2022-08-19T15:06:00;27.20;98.40
5711;DHT22;61291;52.524;13.422;2022-08-19T15:08:28;27.70;98.00
5711;DHT22;61291;52.524;13.422;2022-08-19T15:10:55;28.00;97.40
5711;DHT22;61291;52.524;13.422;2022-08-19T15:13:21;28.10;97.10
5711;DHT22;61291;52.524;13.422;2022-08-19T15:15:48;28.10;96.90
5711;DHT22;61291;52.524;13.422;2022-08-19T15:18:13;28.00;96.80
5711;DHT22;61291;52.524;13.422;2022-08-19T15:20:39;27.60;96.70
5711;DHT22;61291;52.524;13.422;2022-08-19T15:23:05;27.40;96.80
5711;DHT22;61291;52.524;13.422;2022-08-19T15:25:31;27.00;97.20
5711;DHT22;61291;52.524;13.422;2022-08-19T15:27:58;26.80;97.40
5711;DHT22;61291;52.524;13.422;2022-08-19T15:30:27;26.50;97.70
5711;DHT22;61291;52.524;13.422;2022-08-19T15:32:55;26.40;98.00
5711;DHT22;61291;52.524;13.422;2022-08-19T15:35:22;26.00;98.70
5711;DHT22;61291;52.524;13.422;2022-08-19T15:37:52;25.70;99.40
5711;DHT22;61291;52.524;13.422;2022-08-19T15:40:19;25.40;99.90